sensor_id;sensor_type;location;lat;lon;timestamp;pressure;altitude;pressure_sealevel;temperature;humidity
13974;BME280;7060;43.770;4.008;2023-11-21T00:00:19;100961.81;;;11.35;61.22
13974;BME280;7060;43.770;4.008;2023-11-21T00:02:50;100946.88;;;11.33;61.27
13974;BME280;7060;43.770;4.008;2023-11-21T00:05:19;100951.00;;;11.27;61.75
13974;BME280;7060;43.770;4.008;2023-11-21T00:07:50;100944.13;;;11.15;61.56
13974;BME280;7060;43.770;4.008;2023-11-21T00:10:19;100938.25;;;11.02;62.02
13974;BME280;7060;43.770;4.008;2023-11-21T00:12:48;100930.78;;;10.96;62.26
13974;BME280;7060;43.770;4.008;2023-11-21T00:15:17;100923.34;;;10.90;62.54
13974;BME280;7060;43.770;4.008;2023-11-21T00:17:46;100930.25;;;10.73;63.03
13974;BME280;7060;43.770;4.008;2023-11-21T00:20:16;100920.09;;;10.76;62.83
13974;BME280;7060;43.770;4.008;2023-11-21T00:22:46;100921.22;;;10.74;62.87
13974;BME280;7060;43.770;4.008;2023-11-21T00:25:15;100854.28;;;10.37;62.74
13974;BME280;7060;43.770;4.008;2023-11-21T00:27:45;100914.63;;;10.68;62.94
13974;BME280;7060;43.770;4.008;2023-11-21T00:30:14;100917.72;;;10.73;62.66
13974;BME280;7060;43.770;4.008;2023-11-21T00:32:43;100909.53;;;10.75;62.26
13974;BME280;7060;43.770;4.008;2023-11-21T00:35:13;100900.13;;;10.80;62.06
13974;BME280;7060;43.770;4.008;2023-11-21T00:37:43;100890.97;;;10.83;61.75
13974;BME280;7060;43.770;4.008;2023-11-21T00:40:12;100868.72;;;10.82;61.35
13974;BME280;7060;43.770;4.008;2023-11-21T00:42:43;100879.56;;;10.81;61.30
13974;BME280;7060;43.770;4.008;2023-11-21T00:45:12;100876.91;;;10.71;61.70
13974;BME280;7060;43.770;4.008;2023-11-21T00:47:41;100884.91;;;10.62;61.46
13974;BME280;7060;43.770;4.008;2023-11-21T00:50:10;100885.47;;;10.56;61.63
13974;BME280;7060;43.770;4.008;2023-11-21T00:52:39;100893.94;;;10.61;61.20
13974;BME280;7060;43.770;4.008;2023-11-21T00:55:09;100905.88;;;10.66;60.71
13974;BME280;7060;43.770;4.008;2023-11-21T00:57:39;100909.25;;;10.68;60.16
13974;BME280;7060;43.770;4.008;2023-11-21T01:00:09;100907.28;;;10.70;59.73
13974;BME280;7060;43.770;4.008;2023-11-21T01:02:41;100897.88;;;10.76;59.39
13974;BME280;7060;43.770;4.008;2023-11-21T01:05:11;100892.66;;;10.84;58.82
13974;BME280;7060;43.770;4.008;2023-11-21T01:07:41;100870.97;;;10.87;58.55
13974;BME280;7060;43.770;4.008;2023-11-21T01:10:11;100875.19;;;10.90;57.14
13974;BME280;7060;43.770;4.008;2023-11-21T01:12:41;100872.09;;;10.84;56.55
13974;BME280;7060;43.770;4.008;2023-11-21T01:15:10;100884.78;;;10.82;55.67
13974;BME280;7060;43.770;4.008;2023-11-21T01:17:39;100896.88;;;10.86;55.77
13974;BME280;7060;43.770;4.008;2023-11-21T01:20:11;100897.72;;;10.87;55.72
13974;BME280;7060;43.770;4.008;2023-11-21T01:22:41;100895.03;;;10.87;55.60
13974;BME280;7060;43.770;4.008;2023-11-21T01:25:12;100901.09;;;10.89;55.58
13974;BME280;7060;43.770;4.008;2023-11-21T01:27:42;100898.28;;;10.91;55.76
13974;BME280;7060;43.770;4.008;2023-11-21T01:30:11;100891.94;;;10.92;55.94
13974;BME280;7060;43.770;4.008;2023-11-21T01:32:40;100893.22;;;10.88;55.96
13974;BME280;7060;43.770;4.008;2023-11-21T01:35:10;100890.41;;;10.79;55.54
13974;BME280;7060;43.770;4.008;2023-11-21T01:37:39;100890.41;;;10.79;54.02
13974;BME280;7060;43.770;4.008;2023-11-21T01:40:09;100890.13;;;10.82;52.90
13974;BME280;7060;43.770;4.008;2023-11-21T01:42:43;100900.25;;;10.89;52.04
13974;BME280;7060;43.770;4.008;2023-11-21T01:45:15;100898.69;;;10.96;51.29
13974;BME280;7060;43.770;4.008;2023-11-21T01:47:44;100888.09;;;11.04;50.29
13974;BME280;7060;43.770;4.008;2023-11-21T01:50:15;100896.94;;;11.14;50.04
13974;BME280;7060;43.770;4.008;2023-11-21T01:52:46;100880.31;;;11.20;49.18
13974;BME280;7060;43.770;4.008;2023-11-21T01:55:17;100878.75;;;11.27;48.68
13974;BME280;7060;43.770;4.008;2023-11-21T01:57:57;100887.47;;;11.29;48.59
13974;BME280;7060;43.770;4.008;2023-11-21T02:00:26;100840.25;;;11.01;48.29
13974;BME280;7060;43.770;4.008;2023-11-21T02:02:58;100888.41;;;11.38;48.81
13974;BME280;7060;43.770;4.008;2023-11-21T02:05:27;100878.41;;;11.40;48.50
13974;BME280;7060;43.770;4.008;2023-11-21T02:07:58;100873.59;;;11.43;48.19
13974;BME280;7060;43.770;4.008;2023-11-21T02:10:28;100877.53;;;11.49;47.88
13974;BME280;7060;43.770;4.008;2023-11-21T02:13:01;100877.09;;;11.53;47.24
13974;BME280;7060;43.770;4.008;2023-11-21T02:15:31;100881.81;;;11.60;47.51
13974;BME280;7060;43.770;4.008;2023-11-21T02:18:00;100880.81;;;11.61;47.75
13974;BME280;7060;43.770;4.008;2023-11-21T02:20:30;100873.63;;;11.61;47.57
13974;BME280;7060;43.770;4.008;2023-11-21T02:23:05;100877.78;;;11.56;48.36
13974;BME280;7060;43.770;4.008;2023-11-21T02:25:34;100873.56;;;11.53;48.33
13974;BME280;7060;43.770;4.008;2023-11-21T02:28:04;100876.09;;;11.54;48.28
13974;BME280;7060;43.770;4.008;2023-11-21T02:30:35;100881.28;;;11.56;47.82
13974;BME280;7060;43.770;4.008;2023-11-21T02:33:05;100879.13;;;11.60;48.06
13974;BME280;7060;43.770;4.008;2023-11-21T02:35:34;100876.47;;;11.60;47.76
13974;BME280;7060;43.770;4.008;2023-11-21T02:38:05;100867.00;;;11.65;47.67
13974;BME280;7060;43.770;4.008;2023-11-21T02:40:34;100865.00;;;11.67;48.35
13974;BME280;7060;43.770;4.008;2023-11-21T02:43:03;100863.03;;;11.69;47.78
13974;BME280;7060;43.770;4.008;2023-11-21T02:45:33;100857.38;;;11.72;47.95
13974;BME280;7060;43.770;4.008;2023-11-21T02:48:02;100856.69;;;11.70;48.44
13974;BME280;7060;43.770;4.008;2023-11-21T02:50:32;100851.63;;;11.67;48.75
13974;BME280;7060;43.770;4.008;2023-11-21T02:53:02;100856.13;;;11.67;48.77
13974;BME280;7060;43.770;4.008;2023-11-21T02:55:34;100846.97;;;11.69;48.68
13974;BME280;7060;43.770;4.008;2023-11-21T02:58:04;100856.97;;;11.67;48.74
13974;BME280;7060;43.770;4.008;2023-11-21T03:00:33;100838.22;;;11.67;48.93
13974;BME280;7060;43.770;4.008;2023-11-21T03:03:02;100835.41;;;11.69;48.54
13974;BME280;7060;43.770;4.008;2023-11-21T03:05:32;100824.00;;;11.67;48.89
13974;BME280;7060;43.770;4.008;2023-11-21T03:08:03;100826.97;;;11.64;49.00
13974;BME280;7060;43.770;4.008;2023-11-21T03:10:34;100833.88;;;11.66;48.69
13974;BME280;7060;43.770;4.008;2023-11-21T03:13:04;100829.94;;;11.61;49.63
13974;BME280;7060;43.770;4.008;2023-11-21T03:15:33;100826.34;;;11.52;50.68
13974;BME280;7060;43.770;4.008;2023-11-21T03:18:03;100826.41;;;11.42;51.63
13974;BME280;7060;43.770;4.008;2023-11-21T03:20:32;100830.66;;;11.35;51.63
13974;BME280;7060;43.770;4.008;2023-11-21T03:23:02;100828.03;;;11.26;52.29
13974;BME280;7060;43.770;4.008;2023-11-21T03:25:33;100822.72;;;11.16;52.71
13974;BME280;7060;43.770;4.008;2023-11-21T03:28:02;100816.97;;;11.11;53.09
13974;BME280;7060;43.770;4.008;2023-11-21T03:30:31;100810.69;;;11.02;53.50
13974;BME280;7060;43.770;4.008;2023-11-21T03:33:00;100807.88;;;10.94;53.59
13974;BME280;7060;43.770;4.008;2023-11-21T03:35:29;100798.91;;;10.85;53.97
13974;BME280;7060;43.770;4.008;2023-11-21T03:37:58;100792.88;;;10.74;53.67
13974;BME280;7060;43.770;4.008;2023-11-21T03:40:29;100798.81;;;10.58;54.30
13974;BME280;7060;43.770;4.008;2023-11-21T03:43:00;100801.53;;;10.48;54.23
13974;BME280;7060;43.770;4.008;2023-11-21T03:45:28;100798.56;;;10.42;54.41
13974;BME280;7060;43.770;4.008;2023-11-21T03:47:59;100795.63;;;10.35;54.50
13974;BME280;7060;43.770;4.008;2023-11-21T03:50:29;100786.63;;;10.36;54.46
13974;BME280;7060;43.770;4.008;2023-11-21T03:52:58;100786.47;;;10.28;54.92
13974;BME280;7060;43.770;4.008;2023-11-21T03:55:29;100687.00;;;9.68;55.16
13974;BME280;7060;43.770;4.008;2023-11-21T03:58:00;100783.09;;;10.26;55.11
13974;BME280;7060;43.770;4.008;2023-11-21T04:00:29;100777.91;;;10.25;55.27
13974;BME280;7060;43.770;4.008;2023-11-21T04:02:58;100778.19;;;10.22;54.99
13974;BME280;7060;43.770;4.008;2023-11-21T04:05:28;100781.69;;;10.22;54.95
13974;BME280;7060;43.770;4.008;2023-11-21T04:07:56;100777.94;;;10.15;54.92
13974;BME280;7060;43.770;4.008;2023-11-21T04:10:25;100776.81;;;10.08;55.41
13974;BME280;7060;43.770;4.008;2023-11-21T04:12:54;100774.81;;;10.00;55.78
13974;BME280;7060;43.770;4.008;2023-11-21T04:15:25;100748.84;;;9.83;55.47
13974;BME280;7060;43.770;4.008;2023-11-21T04:17:53;100767.81;;;9.80;55.84
13974;BME280;7060;43.770;4.008;2023-11-21T04:20:24;100735.72;;;9.41;55.88
13974;BME280;7060;43.770;4.008;2023-11-21T04:22:53;100763.75;;;9.66;56.48
13974;BME280;7060;43.770;4.008;2023-11-21T04:25:22;100740.25;;;9.60;55.93
13974;BME280;7060;43.770;4.008;2023-11-21T04:27:52;100756.41;;;9.68;56.11
13974;BME280;7060;43.770;4.008;2023-11-21T04:30:21;100763.44;;;9.60;56.11
13974;BME280;7060;43.770;4.008;2023-11-21T04:32:51;100761.88;;;9.47;56.57
13974;BME280;7060;43.770;4.008;2023-11-21T04:35:20;100757.38;;;9.38;56.78
13974;BME280;7060;43.770;4.008;2023-11-21T04:37:50;100754.00;;;9.36;57.15
13974;BME280;7060;43.770;4.008;2023-11-21T04:40:19;100747.81;;;9.36;57.26
13974;BME280;7060;43.770;4.008;2023-11-21T04:42:48;100746.28;;;9.33;56.89
13974;BME280;7060;43.770;4.008;2023-11-21T04:45:17;100739.97;;;9.34;57.17
13974;BME280;7060;43.770;4.008;2023-11-21T04:47:46;100751.16;;;9.28;57.48
13974;BME280;7060;43.770;4.008;2023-11-21T04:50:17;100749.75;;;9.24;58.25
13974;BME280;7060;43.770;4.008;2023-11-21T04:52:46;100745.53;;;9.22;58.16
13974;BME280;7060;43.770;4.008;2023-11-21T04:55:15;100746.38;;;9.22;57.77
13974;BME280;7060;43.770;4.008;2023-11-21T04:57:44;100735.44;;;9.25;58.16
13974;BME280;7060;43.770;4.008;2023-11-21T05:00:14;100724.75;;;9.25;57.57
13974;BME280;7060;43.770;4.008;2023-11-21T05:02:44;100720.81;;;9.20;57.90
13974;BME280;7060;43.770;4.008;2023-11-21T05:05:13;100727.81;;;9.11;58.74
13974;BME280;7060;43.770;4.008;2023-11-21T05:07:43;100721.84;;;8.98;58.99
13974;BME280;7060;43.770;4.008;2023-11-21T05:10:13;100718.16;;;8.89;59.27
13974;BME280;7060;43.770;4.008;2023-11-21T05:12:42;100714.38;;;8.82;59.32
13974;BME280;7060;43.770;4.008;2023-11-21T05:15:14;100697.75;;;8.69;59.95
13974;BME280;7060;43.770;4.008;2023-11-21T05:17:44;100713.69;;;8.49;61.04
13974;BME280;7060;43.770;4.008;2023-11-21T05:20:14;100718.81;;;8.41;60.81
13974;BME280;7060;43.770;4.008;2023-11-21T05:22:47;100715.81;;;8.35;61.13
13974;BME280;7060;43.770;4.008;2023-11-21T05:25:17;100722.84;;;8.36;61.03
13974;BME280;7060;43.770;4.008;2023-11-21T05:27:47;100719.31;;;8.26;61.74
13974;BME280;7060;43.770;4.008;2023-11-21T05:30:16;100723.72;;;8.15;61.19
13974;BME280;7060;43.770;4.008;2023-11-21T05:32:45;100722.25;;;8.02;61.22
13974;BME280;7060;43.770;4.008;2023-11-21T05:35:14;100721.31;;;7.92;62.35
13974;BME280;7060;43.770;4.008;2023-11-21T05:37:44;100703.31;;;7.84;62.47
13974;BME280;7060;43.770;4.008;2023-11-21T05:40:16;100714.63;;;7.97;62.04
13974;BME280;7060;43.770;4.008;2023-11-21T05:42:45;100711.63;;;7.91;61.95
13974;BME280;7060;43.770;4.008;2023-11-21T05:45:14;100708.19;;;7.79;62.61
13974;BME280;7060;43.770;4.008;2023-11-21T05:47:44;100713.56;;;7.68;62.01
13974;BME280;7060;43.770;4.008;2023-11-21T05:50:15;100704.06;;;7.54;62.68
13974;BME280;7060;43.770;4.008;2023-11-21T05:52:45;100705.56;;;7.47;62.67
13974;BME280;7060;43.770;4.008;2023-11-21T05:55:16;100708.59;;;7.42;62.66
13974;BME280;7060;43.770;4.008;2023-11-21T05:57:45;100696.75;;;7.35;62.47
13974;BME280;7060;43.770;4.008;2023-11-21T06:00:15;100707.00;;;7.29;63.13
13974;BME280;7060;43.770;4.008;2023-11-21T06:02:49;100698.25;;;7.17;63.11
13974;BME280;7060;43.770;4.008;2023-11-21T06:05:22;100700.66;;;7.09;63.23
13974;BME280;7060;43.770;4.008;2023-11-21T06:07:53;100697.78;;;7.01;63.29
13974;BME280;7060;43.770;4.008;2023-11-21T06:10:25;100696.31;;;6.97;63.68
13974;BME280;7060;43.770;4.008;2023-11-21T06:12:56;100704.09;;;6.89;63.65
13974;BME280;7060;43.770;4.008;2023-11-21T06:15:30;100705.19;;;6.86;63.95
13974;BME280;7060;43.770;4.008;2023-11-21T06:17:59;100696.56;;;6.94;64.45
13974;BME280;7060;43.770;4.008;2023-11-21T06:20:27;100635.50;;;6.71;63.86
13974;BME280;7060;43.770;4.008;2023-11-21T06:22:56;100687.63;;;6.95;63.59
13974;BME280;7060;43.770;4.008;2023-11-21T06:25:28;100685.50;;;6.89;64.25
13974;BME280;7060;43.770;4.008;2023-11-21T06:28:00;100688.41;;;6.86;63.79
13974;BME280;7060;43.770;4.008;2023-11-21T06:30:29;100686.47;;;6.88;64.33
13974;BME280;7060;43.770;4.008;2023-11-21T06:32:58;100682.59;;;6.92;63.94
13974;BME280;7060;43.770;4.008;2023-11-21T06:35:27;100691.66;;;6.89;63.26
13974;BME280;7060;43.770;4.008;2023-11-21T06:37:57;100698.66;;;6.79;63.97
13974;BME280;7060;43.770;4.008;2023-11-21T06:40:28;100708.19;;;6.70;63.91
13974;BME280;7060;43.770;4.008;2023-11-21T06:42:57;100711.94;;;6.68;64.16
13974;BME280;7060;43.770;4.008;2023-11-21T06:45:27;100701.44;;;6.66;63.47
13974;BME280;7060;43.770;4.008;2023-11-21T06:47:56;100695.91;;;6.58;63.77
13974;BME280;7060;43.770;4.008;2023-11-21T06:50:25;100699.75;;;6.54;64.32
13974;BME280;7060;43.770;4.008;2023-11-21T06:52:54;100707.00;;;6.52;64.14
13974;BME280;7060;43.770;4.008;2023-11-21T06:55:23;100718.25;;;6.56;65.12
13974;BME280;7060;43.770;4.008;2023-11-21T06:57:53;100707.97;;;6.62;64.27
13974;BME280;7060;43.770;4.008;2023-11-21T07:00:22;100712.44;;;6.62;63.99
13974;BME280;7060;43.770;4.008;2023-11-21T07:02:51;100715.69;;;6.54;64.33
13974;BME280;7060;43.770;4.008;2023-11-21T07:05:21;100711.09;;;6.45;64.82
13974;BME280;7060;43.770;4.008;2023-11-21T07:07:51;100707.59;;;6.44;65.26
13974;BME280;7060;43.770;4.008;2023-11-21T07:10:21;100709.16;;;6.47;65.09
13974;BME280;7060;43.770;4.008;2023-11-21T07:12:50;100709.41;;;6.44;65.16
13974;BME280;7060;43.770;4.008;2023-11-21T07:15:21;100716.06;;;6.38;65.92
13974;BME280;7060;43.770;4.008;2023-11-21T07:17:53;100706.13;;;6.40;65.38
13974;BME280;7060;43.770;4.008;2023-11-21T07:20:22;100718.72;;;6.38;65.60
13974;BME280;7060;43.770;4.008;2023-11-21T07:22:51;100719.91;;;6.34;65.61
13974;BME280;7060;43.770;4.008;2023-11-21T07:25:20;100719.91;;;6.34;66.20
13974;BME280;7060;43.770;4.008;2023-11-21T07:27:49;100721.84;;;6.43;66.04
13974;BME280;7060;43.770;4.008;2023-11-21T07:30:18;100718.94;;;6.46;66.04
13974;BME280;7060;43.770;4.008;2023-11-21T07:32:48;100718.44;;;7.52;63.25
13974;BME280;7060;43.770;4.008;2023-11-21T07:35:17;100714.94;;;7.08;64.25
13974;BME280;7060;43.770;4.008;2023-11-21T07:37:46;100712.53;;;6.94;64.64
13974;BME280;7060;43.770;4.008;2023-11-21T07:40:16;100709.06;;;6.82;65.52
13974;BME280;7060;43.770;4.008;2023-11-21T07:42:45;100699.75;;;6.76;65.74
13974;BME280;7060;43.770;4.008;2023-11-21T07:45:14;100707.81;;;6.97;65.57
13974;BME280;7060;43.770;4.008;2023-11-21T07:47:44;100696.03;;;7.33;66.12
13974;BME280;7060;43.770;4.008;2023-11-21T07:50:14;100703.06;;;7.66;65.25
13974;BME280;7060;43.770;4.008;2023-11-21T07:52:43;100702.28;;;7.96;65.39
13974;BME280;7060;43.770;4.008;2023-11-21T07:55:12;100692.94;;;8.23;64.06
13974;BME280;7060;43.770;4.008;2023-11-21T07:57:41;100696.53;;;8.42;63.50
13974;BME280;7060;43.770;4.008;2023-11-21T08:00:12;100697.56;;;8.51;63.46
13974;BME280;7060;43.770;4.008;2023-11-21T08:02:42;100707.84;;;8.65;63.23
13974;BME280;7060;43.770;4.008;2023-11-21T08:05:14;100710.78;;;9.02;62.23
13974;BME280;7060;43.770;4.008;2023-11-21T08:07:54;100716.91;;;10.10;59.59
13974;BME280;7060;43.770;4.008;2023-11-21T08:12:45;100711.84;;;10.64;58.87
13974;BME280;7060;43.770;4.008;2023-11-21T08:15:15;100708.19;;;10.18;60.05
13974;BME280;7060;43.770;4.008;2023-11-21T08:17:44;100710.31;;;10.14;60.27
13974;BME280;7060;43.770;4.008;2023-11-21T08:20:13;100703.66;;;10.28;60.63
13974;BME280;7060;43.770;4.008;2023-11-21T08:22:44;100704.19;;;10.41;60.64
13974;BME280;7060;43.770;4.008;2023-11-21T08:25:15;100709.19;;;10.54;60.45
13974;BME280;7060;43.770;4.008;2023-11-21T08:27:49;100708.19;;;10.65;60.36
13974;BME280;7060;43.770;4.008;2023-11-21T08:30:18;100702.50;;;10.77;60.31
13974;BME280;7060;43.770;4.008;2023-11-21T08:32:49;100697.53;;;10.92;59.81
13974;BME280;7060;43.770;4.008;2023-11-21T08:35:19;100700.81;;;11.04;59.95
13974;BME280;7060;43.770;4.008;2023-11-21T08:37:51;100692.59;;;11.15;59.64
13974;BME280;7060;43.770;4.008;2023-11-21T08:40:21;100692.41;;;11.26;59.75
13974;BME280;7060;43.770;4.008;2023-11-21T08:42:52;100691.00;;;11.40;59.47
13974;BME280;7060;43.770;4.008;2023-11-21T08:45:22;100692.50;;;11.52;58.97
13974;BME280;7060;43.770;4.008;2023-11-21T08:47:51;100690.94;;;11.67;58.77
13974;BME280;7060;43.770;4.008;2023-11-21T08:50:20;100699.97;;;11.84;58.35
13974;BME280;7060;43.770;4.008;2023-11-21T08:52:48;100700.84;;;11.93;58.09
13974;BME280;7060;43.770;4.008;2023-11-21T08:55:18;100709.97;;;12.00;58.68
13974;BME280;7060;43.770;4.008;2023-11-21T08:57:47;100706.53;;;12.07;57.58
13974;BME280;7060;43.770;4.008;2023-11-21T09:00:19;100705.72;;;12.15;57.16
13974;BME280;7060;43.770;4.008;2023-11-21T09:02:49;100713.84;;;12.23;57.48
13974;BME280;7060;43.770;4.008;2023-11-21T09:05:18;100713.59;;;12.34;56.82
13974;BME280;7060;43.770;4.008;2023-11-21T09:07:48;100708.13;;;12.44;56.94
13974;BME280;7060;43.770;4.008;2023-11-21T09:10:17;100702.66;;;12.53;55.93
13974;BME280;7060;43.770;4.008;2023-11-21T09:12:46;100700.19;;;12.60;55.23
13974;BME280;7060;43.770;4.008;2023-11-21T09:15:15;100701.03;;;12.69;55.28
13974;BME280;7060;43.770;4.008;2023-11-21T09:17:45;100700.09;;;12.78;54.53
13974;BME280;7060;43.770;4.008;2023-11-21T09:20:14;100698.28;;;12.86;54.35
13974;BME280;7060;43.770;4.008;2023-11-21T09:22:43;100694.81;;;12.94;54.34
13974;BME280;7060;43.770;4.008;2023-11-21T09:25:13;100697.50;;;13.02;54.55
13974;BME280;7060;43.770;4.008;2023-11-21T09:27:45;100696.53;;;13.11;54.00
13974;BME280;7060;43.770;4.008;2023-11-21T09:30:14;100700.09;;;13.20;53.89
13974;BME280;7060;43.770;4.008;2023-11-21T09:32:45;100689.19;;;13.30;53.92
13974;BME280;7060;43.770;4.008;2023-11-21T09:35:14;100681.31;;;13.36;52.97
13974;BME280;7060;43.770;4.008;2023-11-21T09:37:45;100680.00;;;13.40;51.39
13974;BME280;7060;43.770;4.008;2023-11-21T09:40:21;100674.00;;;13.46;50.51
13974;BME280;7060;43.770;4.008;2023-11-21T09:42:54;100681.19;;;13.54;51.25
13974;BME280;7060;43.770;4.008;2023-11-21T09:45:28;100678.69;;;13.61;51.15
13974;BME280;7060;43.770;4.008;2023-11-21T09:48:00;100665.78;;;13.64;51.27
13974;BME280;7060;43.770;4.008;2023-11-21T09:50:30;100673.84;;;13.72;51.03
13974;BME280;7060;43.770;4.008;2023-11-21T09:53:09;100664.59;;;13.83;51.13
13974;BME280;7060;43.770;4.008;2023-11-21T09:55:43;100667.28;;;13.91;49.55
13974;BME280;7060;43.770;4.008;2023-11-21T09:58:13;100682.25;;;14.02;50.18
13974;BME280;7060;43.770;4.008;2023-11-21T10:00:44;100679.34;;;14.11;50.54
13974;BME280;7060;43.770;4.008;2023-11-21T10:03:15;100678.84;;;14.16;49.47
13974;BME280;7060;43.770;4.008;2023-11-21T10:05:45;100688.75;;;14.23;48.62
13974;BME280;7060;43.770;4.008;2023-11-21T10:08:14;100682.31;;;14.33;48.23
13974;BME280;7060;43.770;4.008;2023-11-21T10:10:44;100678.13;;;14.38;48.29
13974;BME280;7060;43.770;4.008;2023-11-21T10:13:14;100672.72;;;14.46;47.61
13974;BME280;7060;43.770;4.008;2023-11-21T10:15:49;100678.25;;;14.53;47.43
13974;BME280;7060;43.770;4.008;2023-11-21T10:18:20;100677.25;;;14.54;48.16
13974;BME280;7060;43.770;4.008;2023-11-21T10:20:53;100680.94;;;14.61;48.38
13974;BME280;7060;43.770;4.008;2023-11-21T10:23:22;100676.56;;;14.68;46.94
13974;BME280;7060;43.770;4.008;2023-11-21T10:25:52;100657.03;;;14.74;47.59
13974;BME280;7060;43.770;4.008;2023-11-21T10:28:26;100669.78;;;14.80;47.52
13974;BME280;7060;43.770;4.008;2023-11-21T10:30:55;100663.50;;;14.88;47.41
13974;BME280;7060;43.770;4.008;2023-11-21T10:33:29;100667.84;;;14.97;47.46
13974;BME280;7060;43.770;4.008;2023-11-21T10:35:58;100657.41;;;15.02;47.60
13974;BME280;7060;43.770;4.008;2023-11-21T10:38:33;100658.47;;;15.16;46.76
13974;BME280;7060;43.770;4.008;2023-11-21T10:41:12;100643.97;;;15.25;47.10
13974;BME280;7060;43.770;4.008;2023-11-21T10:43:44;100630.09;;;15.36;45.91
13974;BME280;7060;43.770;4.008;2023-11-21T10:46:14;100636.81;;;15.40;46.17
13974;BME280;7060;43.770;4.008;2023-11-21T10:48:45;100633.44;;;15.38;45.86
13974;BME280;7060;43.770;4.008;2023-11-21T10:51:14;100636.31;;;15.37;45.08
13974;BME280;7060;43.770;4.008;2023-11-21T10:53:44;100627.13;;;15.46;45.08
13974;BME280;7060;43.770;4.008;2023-11-21T10:56:14;100627.31;;;15.44;44.58
13974;BME280;7060;43.770;4.008;2023-11-21T10:58:49;100617.84;;;15.48;44.70
13974;BME280;7060;43.770;4.008;2023-11-21T11:01:19;100607.75;;;15.50;44.33
13974;BME280;7060;43.770;4.008;2023-11-21T11:03:50;100605.53;;;15.54;43.93
13974;BME280;7060;43.770;4.008;2023-11-21T11:06:22;100614.09;;;15.57;44.95
13974;BME280;7060;43.770;4.008;2023-11-21T11:08:54;100598.22;;;15.63;45.05
13974;BME280;7060;43.770;4.008;2023-11-21T11:11:24;100609.34;;;15.68;44.81
13974;BME280;7060;43.770;4.008;2023-11-21T11:13:53;100618.53;;;15.73;44.20
13974;BME280;7060;43.770;4.008;2023-11-21T11:16:23;100608.75;;;15.72;43.70
13974;BME280;7060;43.770;4.008;2023-11-21T11:18:54;100607.47;;;15.68;43.88
13974;BME280;7060;43.770;4.008;2023-11-21T11:21:30;100602.13;;;15.60;43.43
13974;BME280;7060;43.770;4.008;2023-11-21T11:24:20;100611.09;;;15.52;43.39
13974;BME280;7060;43.770;4.008;2023-11-21T11:27:01;100601.63;;;15.56;43.75
13974;BME280;7060;43.770;4.008;2023-11-21T11:29:41;100605.13;;;15.65;44.33
13974;BME280;7060;43.770;4.008;2023-11-21T11:32:22;100596.25;;;15.79;43.86
13974;BME280;7060;43.770;4.008;2023-11-21T11:35:01;100591.50;;;15.96;44.25
13974;BME280;7060;43.770;4.008;2023-11-21T11:37:32;100597.28;;;16.08;43.92
13974;BME280;7060;43.770;4.008;2023-11-21T11:40:06;100598.06;;;16.16;43.27
13974;BME280;7060;43.770;4.008;2023-11-21T11:42:36;100601.78;;;16.15;43.25
13974;BME280;7060;43.770;4.008;2023-11-21T11:45:17;100602.97;;;16.13;41.77
13974;BME280;7060;43.770;4.008;2023-11-21T11:47:48;100592.09;;;16.06;42.21
13974;BME280;7060;43.770;4.008;2023-11-21T11:50:18;100598.88;;;16.02;42.29
13974;BME280;7060;43.770;4.008;2023-11-21T11:52:49;100600.84;;;15.94;43.19
13974;BME280;7060;43.770;4.008;2023-11-21T11:55:21;100604.06;;;15.89;43.11
13974;BME280;7060;43.770;4.008;2023-11-21T11:57:52;100604.81;;;15.83;43.61
13974;BME280;7060;43.770;4.008;2023-11-21T12:00:34;100604.50;;;15.78;43.95
13974;BME280;7060;43.770;4.008;2023-11-21T12:03:07;100596.78;;;15.75;43.87
13974;BME280;7060;43.770;4.008;2023-11-21T12:05:38;100600.97;;;15.77;44.13
13974;BME280;7060;43.770;4.008;2023-11-21T12:08:11;100588.81;;;15.81;44.21
13974;BME280;7060;43.770;4.008;2023-11-21T12:10:40;100582.88;;;15.86;44.28
13974;BME280;7060;43.770;4.008;2023-11-21T12:13:10;100585.75;;;15.84;43.17
13974;BME280;7060;43.770;4.008;2023-11-21T12:15:40;100584.63;;;15.79;42.95
13974;BME280;7060;43.770;4.008;2023-11-21T12:18:09;100580.13;;;15.71;42.94
13974;BME280;7060;43.770;4.008;2023-11-21T12:20:40;100574.81;;;15.63;43.20
13974;BME280;7060;43.770;4.008;2023-11-21T12:23:10;100574.16;;;15.61;43.39
13974;BME280;7060;43.770;4.008;2023-11-21T12:25:42;100576.19;;;15.59;43.29
13974;BME280;7060;43.770;4.008;2023-11-21T12:28:12;100560.56;;;15.54;43.38
13974;BME280;7060;43.770;4.008;2023-11-21T12:30:41;100569.53;;;15.47;43.51
13974;BME280;7060;43.770;4.008;2023-11-21T12:33:11;100566.38;;;15.43;43.63
13974;BME280;7060;43.770;4.008;2023-11-21T12:35:46;100564.69;;;15.42;43.93
13974;BME280;7060;43.770;4.008;2023-11-21T12:38:16;100558.03;;;15.38;43.97
13974;BME280;7060;43.770;4.008;2023-11-21T12:40:46;100554.00;;;15.34;43.71
13974;BME280;7060;43.770;4.008;2023-11-21T12:43:15;100558.44;;;15.27;42.74
13974;BME280;7060;43.770;4.008;2023-11-21T12:45:46;100559.81;;;15.23;42.60
13974;BME280;7060;43.770;4.008;2023-11-21T12:48:15;100560.16;;;15.20;41.97
13974;BME280;7060;43.770;4.008;2023-11-21T12:50:52;100558.13;;;15.22;42.56
13974;BME280;7060;43.770;4.008;2023-11-21T12:53:21;100551.38;;;15.26;42.85
13974;BME280;7060;43.770;4.008;2023-11-21T12:55:50;100558.63;;;15.25;42.46
13974;BME280;7060;43.770;4.008;2023-11-21T12:58:24;100564.19;;;15.24;41.76
13974;BME280;7060;43.770;4.008;2023-11-21T13:00:53;100564.19;;;15.24;42.15
13974;BME280;7060;43.770;4.008;2023-11-21T13:03:22;100568.56;;;15.25;42.21
13974;BME280;7060;43.770;4.008;2023-11-21T13:05:55;100572.75;;;15.28;41.88
13974;BME280;7060;43.770;4.008;2023-11-21T13:08:26;100573.44;;;15.21;41.89
13974;BME280;7060;43.770;4.008;2023-11-21T13:10:57;100572.69;;;15.13;41.88
13974;BME280;7060;43.770;4.008;2023-11-21T13:13:28;100572.69;;;15.13;42.26
13974;BME280;7060;43.770;4.008;2023-11-21T13:16:00;100563.31;;;15.09;42.69
13974;BME280;7060;43.770;4.008;2023-11-21T13:18:32;100561.00;;;14.98;42.98
13974;BME280;7060;43.770;4.008;2023-11-21T13:21:04;100571.13;;;14.96;42.77